sensor_id;sensor_type;location;lat;lon;timestamp;P1;durP1;ratioP1;P2;durP2;ratioP2
5630;SDS011;2837;50.990;7.124;2022-11-11T06:02:03;161.80;;;8.20;;
5630;SDS011;2837;50.990;7.124;2022-11-11T06:04:29;156.07;;;7.80;;
5630;SDS011;2837;50.990;7.124;2022-11-11T06:06:55;157.47;;;8.97;;
5630;SDS011;2837;50.990;7.124;2022-11-11T06:09:21;158.77;;;8.80;;
5630;SDS011;2837;50.990;7.124;2022-11-11T06:11:46;156.10;;;8.40;;
5630;SDS011;2837;50.990;7.124;2022-11-11T06:14:12;155.97;;;8.27;;
5630;SDS011;2837;50.990;7.124;2022-11-11T06:16:37;155.10;;;8.20;;
5630;SDS011;2837;50.990;7.124;2022-11-11T06:19:03;156.27;;;8.10;;
5630;SDS011;2837;50.990;7.124;2022-11-11T06:21:29;157.93;;;8.50;;
5630;SDS011;2837;50.990;7.124;2022-11-11T06:24:15;158.93;;;8.13;;
5630;SDS011;2837;50.990;7.124;2022-11-11T06:26:41;156.13;;;8.37;;
5630;SDS011;2837;50.990;7.124;2022-11-11T06:29:06;156.27;;;8.10;;
5630;SDS011;2837;50.990;7.124;2022-11-11T06:31:32;162.10;;;8.30;;
5630;SDS011;2837;50.990;7.124;2022-11-11T06:33:57;158.03;;;9.07;;
5630;SDS011;2837;50.990;7.124;2022-11-11T06:36:23;156.37;;;8.20;;
5630;SDS011;2837;50.990;7.124;2022-11-11T06:38:48;156.27;;;8.70;;
5630;SDS011;2837;50.990;7.124;2022-11-11T06:41:14;156.80;;;8.20;;
5630;SDS011;2837;50.990;7.124;2022-11-11T06:43:40;158.27;;;8.10;;
5630;SDS011;2837;50.990;7.124;2022-11-11T06:46:07;156.67;;;8.70;;
5630;SDS011;2837;50.990;7.124;2022-11-11T06:48:41;156.17;;;8.50;;
5630;SDS011;2837;50.990;7.124;2022-11-11T06:51:08;157.37;;;8.13;;
5630;SDS011;2837;50.990;7.124;2022-11-11T06:53:35;156.37;;;8.30;;
5630;SDS011;2837;50.990;7.124;2022-11-11T06:56:01;155.77;;;8.50;;
5630;SDS011;2837;50.990;7.124;2022-11-11T06:58:26;157.20;;;8.43;;
5630;SDS011;2837;50.990;7.124;2022-11-11T07:00:52;156.97;;;9.07;;
5630;SDS011;2837;50.990;7.124;2022-11-11T07:03:18;157.50;;;8.47;;
5630;SDS011;2837;50.990;7.124;2022-11-11T07:05:46;156.07;;;8.40;;
5630;SDS011;2837;50.990;7.124;2022-11-11T07:08:13;157.60;;;8.40;;
5630;SDS011;2837;50.990;7.124;2022-11-11T07:10:45;156.23;;;8.13;;
5630;SDS011;2837;50.990;7.124;2022-11-11T07:13:12;160.10;;;8.60;;
5630;SDS011;2837;50.990;7.124;2022-11-11T07:15:39;157.37;;;8.90;;
5630;SDS011;2837;50.990;7.124;2022-11-11T07:18:06;157.80;;;8.80;;
5630;SDS011;2837;50.990;7.124;2022-11-11T07:20:32;156.67;;;7.80;;
5630;SDS011;2837;50.990;7.124;2022-11-11T07:22:57;155.87;;;8.30;;
5630;SDS011;2837;50.990;7.124;2022-11-11T07:25:23;157.37;;;8.73;;
5630;SDS011;2837;50.990;7.124;2022-11-11T07:27:48;156.47;;;8.27;;
5630;SDS011;2837;50.990;7.124;2022-11-11T07:30:14;156.33;;;8.60;;
5630;SDS011;2837;50.990;7.124;2022-11-11T07:32:43;156.37;;;8.50;;
5630;SDS011;2837;50.990;7.124;2022-11-11T07:35:13;157.57;;;8.50;;
5630;SDS011;2837;50.990;7.124;2022-11-11T07:37:39;157.27;;;8.77;;
5630;SDS011;2837;50.990;7.124;2022-11-11T07:40:05;155.60;;;8.10;;
5630;SDS011;2837;50.990;7.124;2022-11-11T07:42:31;158.77;;;9.60;;
5630;SDS011;2837;50.990;7.124;2022-11-11T07:45:00;156.97;;;8.13;;
5630;SDS011;2837;50.990;7.124;2022-11-11T07:47:26;159.50;;;8.40;;
5630;SDS011;2837;50.990;7.124;2022-11-11T07:49:51;156.47;;;8.23;;
5630;SDS011;2837;50.990;7.124;2022-11-11T07:52:17;157.17;;;8.37;;
5630;SDS011;2837;50.990;7.124;2022-11-11T07:54:42;155.87;;;8.27;;
5630;SDS011;2837;50.990;7.124;2022-11-11T07:57:08;156.47;;;8.60;;
5630;SDS011;2837;50.990;7.124;2022-11-11T07:59:33;155.07;;;8.17;;
5630;SDS011;2837;50.990;7.124;2022-11-11T08:01:59;158.37;;;9.10;;
5630;SDS011;2837;50.990;7.124;2022-11-11T08:04:24;156.97;;;8.30;;
5630;SDS011;2837;50.990;7.124;2022-11-11T08:06:50;155.87;;;8.17;;
5630;SDS011;2837;50.990;7.124;2022-11-11T08:09:15;159.37;;;9.00;;
5630;SDS011;2837;50.990;7.124;2022-11-11T08:11:41;156.80;;;8.60;;
5630;SDS011;2837;50.990;7.124;2022-11-11T08:14:25;157.07;;;8.90;;
5630;SDS011;2837;50.990;7.124;2022-11-11T08:16:51;155.73;;;8.33;;
5630;SDS011;2837;50.990;7.124;2022-11-11T08:19:17;156.27;;;8.17;;
5630;SDS011;2837;50.990;7.124;2022-11-11T08:21:42;156.37;;;8.47;;
5630;SDS011;2837;50.990;7.124;2022-11-11T08:24:08;155.90;;;8.40;;
5630;SDS011;2837;50.990;7.124;2022-11-11T08:26:34;155.97;;;8.27;;
5630;SDS011;2837;50.990;7.124;2022-11-11T08:28:59;157.07;;;9.77;;
5630;SDS011;2837;50.990;7.124;2022-11-11T08:31:25;156.17;;;8.63;;
5630;SDS011;2837;50.990;7.124;2022-11-11T08:33:51;156.67;;;8.77;;
5630;SDS011;2837;50.990;7.124;2022-11-11T08:36:16;158.80;;;9.20;;
5630;SDS011;2837;50.990;7.124;2022-11-11T08:38:42;156.90;;;9.63;;
5630;SDS011;2837;50.990;7.124;2022-11-11T08:41:07;155.53;;;9.07;;
5630;SDS011;2837;50.990;7.124;2022-11-11T08:43:34;154.87;;;8.37;;
5630;SDS011;2837;50.990;7.124;2022-11-11T08:46:01;156.77;;;9.00;;
5630;SDS011;2837;50.990;7.124;2022-11-11T08:48:28;158.53;;;8.60;;
5630;SDS011;2837;50.990;7.124;2022-11-11T08:50:57;154.83;;;8.30;;
5630;SDS011;2837;50.990;7.124;2022-11-11T08:53:23;156.60;;;9.07;;
5630;SDS011;2837;50.990;7.124;2022-11-11T08:55:48;155.90;;;8.97;;
5630;SDS011;2837;50.990;7.124;2022-11-11T08:58:14;155.97;;;8.93;;
5630;SDS011;2837;50.990;7.124;2022-11-11T09:00:40;155.43;;;8.97;;
5630;SDS011;2837;50.990;7.124;2022-11-11T09:03:07;156.27;;;8.73;;
5630;SDS011;2837;50.990;7.124;2022-11-11T09:05:36;158.57;;;9.60;;
5630;SDS011;2837;50.990;7.124;2022-11-11T09:08:03;155.60;;;9.20;;
5630;SDS011;2837;50.990;7.124;2022-11-11T09:10:31;156.67;;;9.20;;
5630;SDS011;2837;50.990;7.124;2022-11-11T09:13:01;156.40;;;9.30;;
5630;SDS011;2837;50.990;7.124;2022-11-11T09:15:27;157.13;;;8.80;;
5630;SDS011;2837;50.990;7.124;2022-11-11T09:17:53;157.37;;;9.60;;
5630;SDS011;2837;50.990;7.124;2022-11-11T09:20:19;156.50;;;9.07;;
5630;SDS011;2837;50.990;7.124;2022-11-11T09:22:47;155.80;;;8.80;;
5630;SDS011;2837;50.990;7.124;2022-11-11T09:25:13;154.73;;;8.80;;
5630;SDS011;2837;50.990;7.124;2022-11-11T09:27:39;154.97;;;8.77;;
5630;SDS011;2837;50.990;7.124;2022-11-11T09:30:06;155.57;;;9.07;;
5630;SDS011;2837;50.990;7.124;2022-11-11T09:32:32;156.87;;;9.80;;
5630;SDS011;2837;50.990;7.124;2022-11-11T09:34:58;156.97;;;8.80;;
5630;SDS011;2837;50.990;7.124;2022-11-11T09:37:24;156.23;;;9.17;;
5630;SDS011;2837;50.990;7.124;2022-11-11T09:39:50;156.87;;;9.00;;
5630;SDS011;2837;50.990;7.124;2022-11-11T09:42:31;154.00;;;8.50;;
5630;SDS011;2837;50.990;7.124;2022-11-11T09:50:24;158.30;;;9.47;;
5630;SDS011;2837;50.990;7.124;2022-11-11T09:52:55;154.27;;;8.63;;
5630;SDS011;2837;50.990;7.124;2022-11-11T09:55:32;157.50;;;10.13;;
5630;SDS011;2837;50.990;7.124;2022-11-11T09:58:18;155.40;;;8.67;;
5630;SDS011;2837;50.990;7.124;2022-11-11T10:00:48;155.30;;;8.70;;
5630;SDS011;2837;50.990;7.124;2022-11-11T10:03:25;159.10;;;8.53;;
5630;SDS011;2837;50.990;7.124;2022-11-11T10:10:53;155.90;;;8.67;;
5630;SDS011;2837;50.990;7.124;2022-11-11T10:13:29;154.57;;;8.70;;
5630;SDS011;2837;50.990;7.124;2022-11-11T10:15:57;156.50;;;9.10;;
5630;SDS011;2837;50.990;7.124;2022-11-11T10:21:12;157.13;;;9.10;;
5630;SDS011;2837;50.990;7.124;2022-11-11T10:23:40;155.77;;;9.63;;
5630;SDS011;2837;50.990;7.124;2022-11-11T10:28:51;154.50;;;8.73;;
5630;SDS011;2837;50.990;7.124;2022-11-11T10:31:18;155.97;;;9.53;;
5630;SDS011;2837;50.990;7.124;2022-11-11T10:34:02;161.20;;;9.87;;
5630;SDS011;2837;50.990;7.124;2022-11-11T10:36:33;155.37;;;8.17;;
5630;SDS011;2837;50.990;7.124;2022-11-11T10:39:07;155.27;;;8.70;;
5630;SDS011;2837;50.990;7.124;2022-11-11T10:41:42;154.27;;;8.87;;
5630;SDS011;2837;50.990;7.124;2022-11-11T10:44:27;155.30;;;9.20;;
5630;SDS011;2837;50.990;7.124;2022-11-11T10:49:31;156.70;;;9.80;;
5630;SDS011;2837;50.990;7.124;2022-11-11T10:52:02;155.30;;;9.10;;
5630;SDS011;2837;50.990;7.124;2022-11-11T10:54:57;157.40;;;9.30;;
5630;SDS011;2837;50.990;7.124;2022-11-11T10:57:28;155.67;;;9.50;;
5630;SDS011;2837;50.990;7.124;2022-11-11T11:00:04;155.87;;;9.50;;
5630;SDS011;2837;50.990;7.124;2022-11-11T11:05:35;154.70;;;8.40;;
5630;SDS011;2837;50.990;7.124;2022-11-11T11:08:16;155.50;;;8.97;;
5630;SDS011;2837;50.990;7.124;2022-11-11T11:10:49;153.63;;;8.00;;
5630;SDS011;2837;50.990;7.124;2022-11-11T11:13:24;156.07;;;8.50;;
5630;SDS011;2837;50.990;7.124;2022-11-11T11:15:58;156.10;;;9.10;;
5630;SDS011;2837;50.990;7.124;2022-11-11T11:18:30;154.47;;;8.60;;
5630;SDS011;2837;50.990;7.124;2022-11-11T11:21:00;154.10;;;8.33;;
5630;SDS011;2837;50.990;7.124;2022-11-11T11:23:40;153.67;;;8.50;;
5630;SDS011;2837;50.990;7.124;2022-11-11T11:26:08;154.57;;;8.37;;
5630;SDS011;2837;50.990;7.124;2022-11-11T11:28:34;154.40;;;8.30;;
5630;SDS011;2837;50.990;7.124;2022-11-11T11:31:23;153.17;;;8.00;;
5630;SDS011;2837;50.990;7.124;2022-11-11T11:34:01;154.10;;;8.63;;
5630;SDS011;2837;50.990;7.124;2022-11-11T11:36:26;153.50;;;8.30;;
5630;SDS011;2837;50.990;7.124;2022-11-11T11:38:52;152.87;;;7.70;;
5630;SDS011;2837;50.990;7.124;2022-11-11T11:41:34;154.33;;;8.00;;
5630;SDS011;2837;50.990;7.124;2022-11-11T11:44:03;153.77;;;7.83;;
5630;SDS011;2837;50.990;7.124;2022-11-11T11:46:48;153.43;;;7.40;;
5630;SDS011;2837;50.990;7.124;2022-11-11T11:52:05;154.17;;;8.43;;
5630;SDS011;2837;50.990;7.124;2022-11-11T11:57:38;153.10;;;8.60;;
5630;SDS011;2837;50.990;7.124;2022-11-11T12:00:19;153.00;;;7.37;;
5630;SDS011;2837;50.990;7.124;2022-11-11T12:05:47;152.93;;;7.90;;
5630;SDS011;2837;50.990;7.124;2022-11-11T12:14:06;152.47;;;7.50;;
5630;SDS011;2837;50.990;7.124;2022-11-11T12:16:56;151.70;;;7.50;;
5630;SDS011;2837;50.990;7.124;2022-11-11T12:19:46;152.73;;;8.27;;
5630;SDS011;2837;50.990;7.124;2022-11-11T12:23:02;151.77;;;7.50;;
5630;SDS011;2837;50.990;7.124;2022-11-11T12:25:11;160.67;;;8.30;;
5630;SDS011;2837;50.990;7.124;2022-11-11T12:27:53;152.00;;;7.20;;
5630;SDS011;2837;50.990;7.124;2022-11-11T12:30:51;152.13;;;7.47;;
5630;SDS011;2837;50.990;7.124;2022-11-11T12:34:01;153.00;;;7.67;;
5630;SDS011;2837;50.990;7.124;2022-11-11T12:42:09;153.47;;;8.07;;
5630;SDS011;2837;50.990;7.124;2022-11-11T12:44:50;151.07;;;8.00;;
5630;SDS011;2837;50.990;7.124;2022-11-11T12:47:30;151.67;;;8.07;;
5630;SDS011;2837;50.990;7.124;2022-11-11T12:55:29;151.77;;;7.43;;
5630;SDS011;2837;50.990;7.124;2022-11-11T13:01:19;151.97;;;8.27;;
5630;SDS011;2837;50.990;7.124;2022-11-11T13:03:55;152.77;;;8.97;;
5630;SDS011;2837;50.990;7.124;2022-11-11T13:09:37;151.60;;;8.40;;
5630;SDS011;2837;50.990;7.124;2022-11-11T13:14:42;151.87;;;8.07;;
5630;SDS011;2837;50.990;7.124;2022-11-11T13:17:12;151.30;;;8.47;;
5630;SDS011;2837;50.990;7.124;2022-11-11T13:19:40;152.07;;;9.07;;
5630;SDS011;2837;50.990;7.124;2022-11-11T13:24:52;151.17;;;9.10;;
5630;SDS011;2837;50.990;7.124;2022-11-11T13:32:43;153.70;;;9.40;;
5630;SDS011;2837;50.990;7.124;2022-11-11T13:35:30;152.03;;;8.93;;
5630;SDS011;2837;50.990;7.124;2022-11-11T13:38:06;152.33;;;9.87;;
5630;SDS011;2837;50.990;7.124;2022-11-11T13:40:50;153.57;;;10.23;;
5630;SDS011;2837;50.990;7.124;2022-11-11T13:43:29;151.03;;;9.10;;
5630;SDS011;2837;50.990;7.124;2022-11-11T13:46:06;154.50;;;10.27;;
5630;SDS011;2837;50.990;7.124;2022-11-11T13:48:55;152.97;;;10.43;;
5630;SDS011;2837;50.990;7.124;2022-11-11T13:51:25;151.80;;;9.20;;
5630;SDS011;2837;50.990;7.124;2022-11-11T13:54:01;153.97;;;9.40;;
5630;SDS011;2837;50.990;7.124;2022-11-11T13:59:02;152.97;;;9.70;;
5630;SDS011;2837;50.990;7.124;2022-11-11T14:01:32;153.80;;;9.73;;
5630;SDS011;2837;50.990;7.124;2022-11-11T14:04:00;151.97;;;10.17;;
5630;SDS011;2837;50.990;7.124;2022-11-11T14:09:01;151.70;;;9.73;;
5630;SDS011;2837;50.990;7.124;2022-11-11T14:13:55;153.13;;;9.90;;
5630;SDS011;2837;50.990;7.124;2022-11-11T14:19:21;158.67;;;11.17;;
5630;SDS011;2837;50.990;7.124;2022-11-11T14:21:52;152.20;;;9.60;;
5630;SDS011;2837;50.990;7.124;2022-11-11T14:24:43;154.37;;;10.40;;
5630;SDS011;2837;50.990;7.124;2022-11-11T14:29:38;151.77;;;9.80;;
5630;SDS011;2837;50.990;7.124;2022-11-11T14:40:25;152.47;;;10.37;;
5630;SDS011;2837;50.990;7.124;2022-11-11T14:42:52;153.10;;;10.70;;
5630;SDS011;2837;50.990;7.124;2022-11-11T14:47:56;151.90;;;10.23;;
5630;SDS011;2837;50.990;7.124;2022-11-11T14:52:57;153.30;;;9.73;;
5630;SDS011;2837;50.990;7.124;2022-11-11T14:55:29;152.50;;;10.43;;
5630;SDS011;2837;50.990;7.124;2022-11-11T14:58:04;154.40;;;10.07;;
5630;SDS011;2837;50.990;7.124;2022-11-11T15:03:29;153.83;;;10.27;;
5630;SDS011;2837;50.990;7.124;2022-11-11T15:19:22;151.70;;;8.60;;
5630;SDS011;2837;50.990;7.124;2022-11-11T15:22:29;151.40;;;8.90;;
5630;SDS011;2837;50.990;7.124;2022-11-11T15:27:53;152.90;;;8.47;;
5630;SDS011;2837;50.990;7.124;2022-11-11T15:30:36;152.10;;;9.20;;
5630;SDS011;2837;50.990;7.124;2022-11-11T15:33:45;152.23;;;7.80;;
5630;SDS011;2837;50.990;7.124;2022-11-11T15:39:09;152.73;;;8.80;;
5630;SDS011;2837;50.990;7.124;2022-11-11T15:41:38;152.57;;;8.83;;
5630;SDS011;2837;50.990;7.124;2022-11-11T15:44:28;151.17;;;7.60;;
5630;SDS011;2837;50.990;7.124;2022-11-11T15:46:54;152.43;;;8.30;;
5630;SDS011;2837;50.990;7.124;2022-11-11T15:49:36;152.33;;;9.27;;
5630;SDS011;2837;50.990;7.124;2022-11-11T15:52:52;153.50;;;8.03;;
5630;SDS011;2837;50.990;7.124;2022-11-11T15:54:59;153.07;;;7.50;;
5630;SDS011;2837;50.990;7.124;2022-11-11T15:57:27;151.77;;;8.80;;
5630;SDS011;2837;50.990;7.124;2022-11-11T15:59:55;151.87;;;8.17;;
5630;SDS011;2837;50.990;7.124;2022-11-11T16:02:23;151.33;;;7.83;;
5630;SDS011;2837;50.990;7.124;2022-11-11T16:04:52;152.33;;;8.03;;
5630;SDS011;2837;50.990;7.124;2022-11-11T16:07:23;154.07;;;8.27;;
5630;SDS011;2837;50.990;7.124;2022-11-11T16:10:04;153.00;;;8.10;;
5630;SDS011;2837;50.990;7.124;2022-11-11T16:18:18;154.27;;;7.37;;
5630;SDS011;2837;50.990;7.124;2022-11-11T16:20:48;152.23;;;8.13;;
5630;SDS011;2837;50.990;7.124;2022-11-11T16:23:22;152.20;;;7.40;;
5630;SDS011;2837;50.990;7.124;2022-11-11T16:25:49;153.47;;;7.80;;
5630;SDS011;2837;50.990;7.124;2022-11-11T16:28:16;152.93;;;8.10;;
5630;SDS011;2837;50.990;7.124;2022-11-11T16:30:42;152.50;;;8.13;;
5630;SDS011;2837;50.990;7.124;2022-11-11T16:33:18;153.00;;;8.40;;
5630;SDS011;2837;50.990;7.124;2022-11-11T16:36:05;154.10;;;8.47;;
5630;SDS011;2837;50.990;7.124;2022-11-11T16:38:35;152.70;;;8.10;;
5630;SDS011;2837;50.990;7.124;2022-11-11T16:41:02;152.63;;;7.63;;
5630;SDS011;2837;50.990;7.124;2022-11-11T16:43:30;155.27;;;7.97;;
5630;SDS011;2837;50.990;7.124;2022-11-11T16:46:02;151.27;;;6.90;;
5630;SDS011;2837;50.990;7.124;2022-11-11T16:50:57;153.27;;;7.57;;
5630;SDS011;2837;50.990;7.124;2022-11-11T16:53:35;152.30;;;7.60;;
5630;SDS011;2837;50.990;7.124;2022-11-11T16:56:07;152.80;;;7.47;;
5630;SDS011;2837;50.990;7.124;2022-11-11T16:58:46;152.97;;;7.60;;
5630;SDS011;2837;50.990;7.124;2022-11-11T17:01:21;153.37;;;7.50;;
5630;SDS011;2837;50.990;7.124;2022-11-11T17:03:53;155.50;;;7.67;;
5630;SDS011;2837;50.990;7.124;2022-11-11T17:12:02;153.17;;;7.60;;
5630;SDS011;2837;50.990;7.124;2022-11-11T17:14:29;155.67;;;7.90;;
5630;SDS011;2837;50.990;7.124;2022-11-11T17:16:57;161.37;;;11.10;;
5630;SDS011;2837;50.990;7.124;2022-11-11T17:19:23;178.47;;;21.87;;
5630;SDS011;2837;50.990;7.124;2022-11-11T17:21:49;180.17;;;24.07;;
5630;SDS011;2837;50.990;7.124;2022-11-11T17:24:15;161.70;;;12.80;;
5630;SDS011;2837;50.990;7.124;2022-11-11T17:26:40;153.27;;;8.33;;
5630;SDS011;2837;50.990;7.124;2022-11-11T17:29:06;155.30;;;8.47;;
5630;SDS011;2837;50.990;7.124;2022-11-11T17:31:34;154.30;;;8.60;;
5630;SDS011;2837;50.990;7.124;2022-11-11T17:34:04;153.67;;;8.17;;
5630;SDS011;2837;50.990;7.124;2022-11-11T17:36:31;155.20;;;7.80;;
5630;SDS011;2837;50.990;7.124;2022-11-11T17:38:56;156.63;;;10.23;;
5630;SDS011;2837;50.990;7.124;2022-11-11T17:41:22;155.67;;;8.90;;
5630;SDS011;2837;50.990;7.124;2022-11-11T17:43:47;154.17;;;8.57;;
5630;SDS011;2837;50.990;7.124;2022-11-11T17:46:13;155.57;;;7.93;;
5630;SDS011;2837;50.990;7.124;2022-11-11T17:48:38;155.40;;;7.70;;
5630;SDS011;2837;50.990;7.124;2022-11-11T17:51:04;152.57;;;7.70;;
5630;SDS011;2837;50.990;7.124;2022-11-11T17:53:33;152.77;;;7.70;;
5630;SDS011;2837;50.990;7.124;2022-11-11T17:56:01;156.03;;;8.77;;
5630;SDS011;2837;50.990;7.124;2022-11-11T17:58:27;153.67;;;8.53;;
5630;SDS011;2837;50.990;7.124;2022-11-11T18:00:53;154.47;;;8.27;;
5630;SDS011;2837;50.990;7.124;2022-11-11T18:03:19;153.63;;;7.80;;
5630;SDS011;2837;50.990;7.124;2022-11-11T18:05:44;153.20;;;7.30;;
5630;SDS011;2837;50.990;7.124;2022-11-11T18:08:10;153.87;;;8.10;;
5630;SDS011;2837;50.990;7.124;2022-11-11T18:10:35;153.40;;;8.00;;
5630;SDS011;2837;50.990;7.124;2022-11-11T18:13:01;156.17;;;9.30;;
5630;SDS011;2837;50.990;7.124;2022-11-11T18:15:26;155.10;;;7.93;;
5630;SDS011;2837;50.990;7.124;2022-11-11T18:17:52;153.47;;;8.00;;
5630;SDS011;2837;50.990;7.124;2022-11-11T18:20:17;153.83;;;7.90;;
5630;SDS011;2837;50.990;7.124;2022-11-11T18:22:43;154.10;;;7.60;;
5630;SDS011;2837;50.990;7.124;2022-11-11T18:25:09;154.97;;;8.00;;
5630;SDS011;2837;50.990;7.124;2022-11-11T18:27:34;153.77;;;8.33;;
5630;SDS011;2837;50.990;7.124;2022-11-11T18:30:00;153.53;;;7.60;;
5630;SDS011;2837;50.990;7.124;2022-11-11T18:32:25;153.23;;;7.03;;
5630;SDS011;2837;50.990;7.124;2022-11-11T18:34:51;156.77;;;8.00;;
5630;SDS011;2837;50.990;7.124;2022-11-11T18:37:16;154.57;;;8.00;;
5630;SDS011;2837;50.990;7.124;2022-11-11T18:39:42;153.37;;;7.80;;
5630;SDS011;2837;50.990;7.124;2022-11-11T18:42:07;155.27;;;8.80;;
5630;SDS011;2837;50.990;7.124;2022-11-11T18:44:33;153.83;;;7.67;;
5630;SDS011;2837;50.990;7.124;2022-11-11T18:46:59;154.17;;;7.97;;
5630;SDS011;2837;50.990;7.124;2022-11-11T18:49:24;154.97;;;8.27;;
5630;SDS011;2837;50.990;7.124;2022-11-11T18:51:50;156.90;;;9.30;;
5630;SDS011;2837;50.990;7.124;2022-11-11T18:54:15;154.60;;;7.83;;
5630;SDS011;2837;50.990;7.124;2022-11-11T18:56:41;155.80;;;8.07;;
5630;SDS011;2837;50.990;7.124;2022-11-11T18:59:07;155.10;;;7.90;;
5630;SDS011;2837;50.990;7.124;2022-11-11T19:01:36;155.00;;;8.47;;
5630;SDS011;2837;50.990;7.124;2022-11-11T19:04:06;155.13;;;7.87;;
5630;SDS011;2837;50.990;7.124;2022-11-11T19:06:34;153.73;;;7.77;;
5630;SDS011;2837;50.990;7.124;2022-11-11T19:09:06;153.97;;;7.87;;
5630;SDS011;2837;50.990;7.124;2022-11-11T19:11:34;158.80;;;9.97;;
5630;SDS011;2837;50.990;7.124;2022-11-11T19:14:03;156.67;;;8.90;;
5630;SDS011;2837;50.990;7.124;2022-11-11T19:16:30;161.70;;;10.00;;
5630;SDS011;2837;50.990;7.124;2022-11-11T19:18:56;176.93;;;20.97;;
5630;SDS011;2837;50.990;7.124;2022-11-11T19:21:23;178.40;;;20.97;;
5630;SDS011;2837;50.990;7.124;2022-11-11T19:23:52;158.70;;;11.13;;
5630;SDS011;2837;50.990;7.124;2022-11-11T19:26:19;158.40;;;9.77;;
5630;SDS011;2837;50.990;7.124;2022-11-11T19:28:46;155.43;;;8.87;;
5630;SDS011;2837;50.990;7.124;2022-11-11T19:31:13;155.60;;;8.90;;
5630;SDS011;2837;50.990;7.124;2022-11-11T19:33:41;156.33;;;8.33;;
5630;SDS011;2837;50.990;7.124;2022-11-11T19:36:09;154.80;;;8.60;;
5630;SDS011;2837;50.990;7.124;2022-11-11T19:38:36;156.83;;;8.80;;
5630;SDS011;2837;50.990;7.124;2022-11-11T19:41:06;155.57;;;8.23;;
5630;SDS011;2837;50.990;7.124;2022-11-11T19:43:33;156.10;;;8.53;;
5630;SDS011;2837;50.990;7.124;2022-11-11T19:45:59;155.93;;;8.00;;
5630;SDS011;2837;50.990;7.124;2022-11-11T19:48:25;155.17;;;9.10;;
5630;SDS011;2837;50.990;7.124;2022-11-11T19:50:51;158.63;;;10.97;;
5630;SDS011;2837;50.990;7.124;2022-11-11T19:53:17;167.30;;;15.53;;
5630;SDS011;2837;50.990;7.124;2022-11-11T19:55:54;159.97;;;11.90;;
5630;SDS011;2837;50.990;7.124;2022-11-11T19:58:23;157.67;;;10.33;;
5630;SDS011;2837;50.990;7.124;2022-11-11T20:00:49;156.90;;;8.87;;
5630;SDS011;2837;50.990;7.124;2022-11-11T20:03:15;156.13;;;8.30;;
5630;SDS011;2837;50.990;7.124;2022-11-11T20:05:41;155.43;;;7.90;;
5630;SDS011;2837;50.990;7.124;2022-11-11T20:08:06;155.57;;;9.00;;
5630;SDS011;2837;50.990;7.124;2022-11-11T20:10:35;156.63;;;8.87;;
5630;SDS011;2837;50.990;7.124;2022-11-11T20:13:02;155.20;;;8.77;;
5630;SDS011;2837;50.990;7.124;2022-11-11T20:15:28;156.07;;;8.10;;
5630;SDS011;2837;50.990;7.124;2022-11-11T20:17:54;156.13;;;8.33;;
5630;SDS011;2837;50.990;7.124;2022-11-11T20:20:19;156.50;;;9.73;;
5630;SDS011;2837;50.990;7.124;2022-11-11T20:22:45;155.37;;;8.03;;
5630;SDS011;2837;50.990;7.124;2022-11-11T20:25:10;158.07;;;8.90;;
5630;SDS011;2837;50.990;7.124;2022-11-11T20:27:36;157.37;;;9.17;;
5630;SDS011;2837;50.990;7.124;2022-11-11T20:30:02;154.93;;;8.70;;
5630;SDS011;2837;50.990;7.124;2022-11-11T20:32:28;155.17;;;8.10;;
5630;SDS011;2837;50.990;7.124;2022-11-11T20:34:54;156.10;;;9.07;;
5630;SDS011;2837;50.990;7.124;2022-11-11T20:37:20;154.90;;;8.30;;
5630;SDS011;2837;50.990;7.124;2022-11-11T20:39:46;154.97;;;8.70;;
5630;SDS011;2837;50.990;7.124;2022-11-11T20:42:11;155.17;;;9.10;;
5630;SDS011;2837;50.990;7.124;2022-11-11T20:44:37;157.07;;;8.43;;
5630;SDS011;2837;50.990;7.124;2022-11-11T20:47:02;157.37;;;8.80;;
5630;SDS011;2837;50.990;7.124;2022-11-11T20:49:28;155.70;;;8.70;;
5630;SDS011;2837;50.990;7.124;2022-11-11T20:51:53;158.60;;;9.20;;
5630;SDS011;2837;50.990;7.124;2022-11-11T20:54:19;156.07;;;9.00;;
5630;SDS011;2837;50.990;7.124;2022-11-11T20:56:44;157.60;;;10.27;;
5630;SDS011;2837;50.990;7.124;2022-11-11T20:59:12;158.77;;;8.77;;
5630;SDS011;2837;50.990;7.124;2022-11-11T21:01:37;156.50;;;9.33;;
5630;SDS011;2837;50.990;7.124;2022-11-11T21:04:03;156.77;;;9.00;;
5630;SDS011;2837;50.990;7.124;2022-11-11T21:06:28;155.30;;;8.40;;
5630;SDS011;2837;50.990;7.124;2022-11-11T21:08:54;156.07;;;8.83;;
5630;SDS011;2837;50.990;7.124;2022-11-11T21:11:21;155.50;;;9.00;;
5630;SDS011;2837;50.990;7.124;2022-11-11T21:13:50;157.17;;;8.37;;
5630;SDS011;2837;50.990;7.124;2022-11-11T21:16:18;156.30;;;9.30;;
5630;SDS011;2837;50.990;7.124;2022-11-11T21:18:45;156.07;;;8.97;;
5630;SDS011;2837;50.990;7.124;2022-11-11T21:21:19;160.07;;;10.30;;
5630;SDS011;2837;50.990;7.124;2022-11-11T21:23:46;155.37;;;8.53;;
5630;SDS011;2837;50.990;7.124;2022-11-11T21:26:13;158.63;;;9.87;;
5630;SDS011;2837;50.990;7.124;2022-11-11T21:28:41;156.80;;;8.70;;
5630;SDS011;2837;50.990;7.124;2022-11-11T21:31:10;157.97;;;8.67;;
5630;SDS011;2837;50.990;7.124;2022-11-11T21:33:39;156.40;;;9.20;;
5630;SDS011;2837;50.990;7.124;2022-11-11T21:38:35;157.27;;;9.83;;
5630;SDS011;2837;50.990;7.124;2022-11-11T21:43:28;160.87;;;9.00;;
5630;SDS011;2837;50.990;7.124;2022-11-11T21:45:58;158.50;;;9.10;;
5630;SDS011;2837;50.990;7.124;2022-11-11T21:48:24;156.57;;;9.00;;
5630;SDS011;2837;50.990;7.124;2022-11-11T21:50:50;157.07;;;10.03;;
5630;SDS011;2837;50.990;7.124;2022-11-11T21:53:15;159.27;;;9.73;;
5630;SDS011;2837;50.990;7.124;2022-11-11T21:55:41;155.90;;;8.40;;
5630;SDS011;2837;50.990;7.124;2022-11-11T21:58:07;156.50;;;9.63;;
